KMRJ

Details ICAO KMRJ
Name Iowa Co
Region United States
Timezone America/Chicago (UTC-6.0)
Plans Departing 1
Arriving 0
Stats Elevation 1,171 ft / 357 m (AMSL)
Location 42.886637° -90.235617°
Runways 2
Magnetic Variation 2.002° W
Sunrise 2017-12-14 13:25:46 UTC / 2017-12-14 07:25:46 Local
Sunset 2017-12-14 22:28:30 UTC / 2017-12-14 16:28:30 Local
Advertisement - Login to hide

Runways

ID Width Length Bearing (true) Bearing (mag) Surface Threshold Offset Overrun Length
04 60 ft / 18 m 3,599 ft / 1,097 m 40.14° 42.14° Asphalt 0 ft / 0 m 0 ft / 0 m
11 75 ft / 23 m 4,990 ft / 1,521 m 110.85° 112.85° Asphalt 0 ft / 0 m 0 ft / 0 m
22 60 ft / 18 m 3,599 ft / 1,097 m 220.14° 222.14° Asphalt 0 ft / 0 m 0 ft / 0 m
29 75 ft / 23 m 4,990 ft / 1,521 m 290.87° 292.87° Asphalt 0 ft / 0 m 0 ft / 0 m

Map

Weather


0- 5 10 15 20 25 30 35+ Temperature / ° C

Clouds and Precipitation
Forecast for 2017-12-14 06:00 UTC. Updated an hour ago

Ground ~20,000 ft ~40,000 ft Winds

METAR

KMRJ 140615Z AUTO 01007KT 10SM BKN017 OVC040 M05/M08 A2988 RMK AO2

TAF

Not found

Frequencies

Recorded 118.52 MHz AWOS 3
Unicom 122.80 MHz CTAF/UNICOM
Warning: Do not use this data for real-world aviation or navigation. No guarantee of current accuracy is given.